Grass Valley, California
Current Conditions -  °F | °C
As of 10:20 AM on Friday 28 Nov 2014 (Local Time) from KGOO Reporting Station
Few Clouds Few Clouds  
Wind Chill: 15°   Ceiling: Unl
Heat Index: 15°   Visibility: 10mi
Dew Point: -3°   Wind: 5mph
Humidity: 29%   Direction: 170°S
Pressure: 30.04"   Gusts: NA
Location:  39.22°N, 121.06°W
Report Text: KGOO 281820Z AUTO 17004KT 10SM FEW090 15/M03 A3004 RMK AO1
Loading
Personal Weather Stations






























Interactive Weather Map New forecast layout! Learn more

10-Day Weather Forecast

Advertisements
Track Severe Weather on mobile